createdAt,value
2023-04-30T00:04:35.566Z,257.03
2023-04-30T00:09:37.715Z,242.30
2023-04-30T00:14:40.134Z,242.77
2023-04-30T00:19:42.968Z,244.37
2023-04-30T00:24:45.522Z,247.20
2023-04-30T00:29:47.721Z,267.00
2023-04-30T00:34:50.112Z,285.37
2023-04-30T00:39:52.850Z,285.73
2023-04-30T00:44:55.209Z,286.33
2023-04-30T00:49:58.798Z,290.10
2023-04-30T00:55:01.174Z,289.20
2023-04-30T01:00:04.471Z,281.90
2023-04-30T01:05:08.115Z,251.50
2023-04-30T01:10:12.507Z,249.03
2023-04-30T01:15:27.627Z,249.47
2023-04-30T01:20:32.338Z,285.63
2023-04-30T01:25:58.366Z,277.20
2023-04-30T01:31:00.673Z,288.43
2023-04-30T01:36:36.059Z,294.60
2023-04-30T01:42:02.418Z,245.07
2023-04-30T01:47:25.775Z,268.87
2023-04-30T01:52:45.119Z,286.57
2023-04-30T01:58:00.704Z,259.77
2023-04-30T02:03:03.284Z,301.50
2023-04-30T02:08:06.354Z,258.70
2023-04-30T02:13:08.999Z,242.60
2023-04-30T02:18:11.321Z,283.07
2023-04-30T02:23:13.595Z,279.37
2023-04-30T02:28:15.813Z,281.13
2023-04-30T02:33:17.954Z,296.20
2023-04-30T02:38:20.058Z,325.03
2023-04-30T02:43:22.481Z,326.37
2023-04-30T02:48:24.964Z,331.07
2023-04-30T02:53:27.558Z,333.23
2023-04-30T02:58:29.737Z,335.03
2023-04-30T03:03:32.242Z,335.93
2023-04-30T03:08:34.544Z,298.17
2023-04-30T03:13:36.766Z,275.67
2023-04-30T03:18:38.911Z,270.27
2023-04-30T03:23:41.178Z,268.50
2023-04-30T03:28:43.457Z,262.83
2023-04-30T03:33:45.750Z,262.97
2023-04-30T03:38:47.964Z,288.50
2023-04-30T03:43:50.290Z,308.07
2023-04-30T03:48:52.734Z,315.23
2023-04-30T03:53:56.033Z,324.47
2023-04-30T03:58:58.530Z,322.20
2023-04-30T04:04:01.624Z,312.90
2023-04-30T04:09:04.950Z,291.63
2023-04-30T04:14:07.125Z,259.63
2023-04-30T04:19:09.274Z,260.27
2023-04-30T04:24:11.504Z,259.43
2023-04-30T04:29:13.762Z,259.53
2023-04-30T04:34:16.958Z,262.40
2023-04-30T04:39:19.045Z,320.83
2023-04-30T04:44:21.881Z,333.70
2023-04-30T04:49:24.240Z,319.60
2023-04-30T04:54:27.659Z,322.80
2023-04-30T04:59:30.700Z,317.70
2023-04-30T05:04:33.019Z,321.33
2023-04-30T05:09:35.105Z,275.40
2023-04-30T05:14:37.581Z,257.10
2023-04-30T05:19:39.668Z,260.40
2023-04-30T05:24:41.839Z,253.60
2023-04-30T05:29:44.061Z,252.47
2023-04-30T05:34:46.200Z,296.43
2023-04-30T05:39:48.828Z,320.53
2023-04-30T05:44:51.131Z,327.00
2023-04-30T05:49:53.512Z,342.30
2023-04-30T05:54:55.858Z,339.07
2023-04-30T05:59:57.994Z,325.33
2023-04-30T06:05:02.190Z,313.70
2023-04-30T06:10:05.092Z,288.17
2023-04-30T06:15:08.131Z,258.73
2023-04-30T06:20:10.909Z,255.60
2023-04-30T06:25:13.112Z,257.60
2023-04-30T06:30:15.575Z,255.40
2023-04-30T06:35:17.788Z,280.43
2023-04-30T06:40:20.779Z,293.13
2023-04-30T06:45:23.067Z,318.30
2023-04-30T06:50:25.174Z,309.73
2023-04-30T06:55:28.265Z,310.43
2023-04-30T07:00:33.048Z,335.53
2023-04-30T07:05:35.397Z,305.63
2023-04-30T07:10:37.568Z,283.97
2023-04-30T07:15:40.395Z,292.93
2023-04-30T07:20:42.646Z,294.43
2023-04-30T07:25:44.924Z,290.63
2023-04-30T07:30:47.278Z,296.37
2023-04-30T07:35:49.445Z,353.80
2023-04-30T07:40:51.629Z,359.33
2023-04-30T07:45:54.845Z,377.60
2023-04-30T07:50:57.711Z,371.10
2023-04-30T07:55:59.915Z,266.83
2023-04-30T08:01:02.106Z,329.10
2023-04-30T08:06:06.162Z,324.13
2023-04-30T08:11:08.364Z,302.93
2023-04-30T08:16:10.550Z,218.33
2023-04-30T08:21:13.980Z,327.23
2023-04-30T08:26:16.096Z,333.27
2023-04-30T08:31:21.274Z,350.30
2023-04-30T08:36:23.511Z,385.83
2023-04-30T08:41:30.599Z,288.10
2023-04-30T08:46:35.751Z,389.90
2023-04-30T08:51:38.233Z,326.63
2023-04-30T08:56:41.556Z,317.33
2023-04-30T09:01:43.937Z,326.47
2023-04-30T09:06:46.427Z,324.07
2023-04-30T09:11:48.624Z,346.37
2023-04-30T09:16:53.016Z,304.93
2023-04-30T09:21:56.529Z,335.07
2023-04-30T09:26:58.768Z,381.13
2023-04-30T09:32:10.094Z,389.70
2023-04-30T09:37:12.616Z,327.77
2023-04-30T09:42:15.134Z,330.87
2023-04-30T09:47:20.617Z,335.63
2023-04-30T09:52:23.669Z,379.00
2023-04-30T09:57:30.578Z,379.17
2023-04-30T10:02:34.283Z,372.00
2023-04-30T10:07:40.908Z,313.97
2023-04-30T10:12:53.503Z,330.83
2023-04-30T10:18:05.955Z,358.43
2023-04-30T10:23:08.814Z,365.00
2023-04-30T10:28:11.857Z,309.80
2023-04-30T10:33:17.117Z,303.63
2023-04-30T10:38:25.442Z,347.50
2023-04-30T10:43:30.641Z,365.40
2023-04-30T10:48:36.081Z,362.00
2023-04-30T10:53:40.442Z,286.70
2023-04-30T10:58:44.296Z,282.13
2023-04-30T11:04:10.710Z,278.37
2023-04-30T11:09:13.098Z,273.53
2023-04-30T11:14:21.615Z,271.03
2023-04-30T11:19:25.250Z,328.07
2023-04-30T11:24:55.513Z,340.30
2023-04-30T11:29:59.485Z,336.27
2023-04-30T11:35:06.868Z,335.63
2023-04-30T11:40:12.073Z,270.93
2023-04-30T11:45:23.567Z,272.73
2023-04-30T11:50:29.690Z,318.87
2023-04-30T11:55:32.121Z,317.23
2023-04-30T12:00:34.658Z,320.30
2023-04-30T12:05:37.091Z,273.10
2023-04-30T12:10:39.433Z,258.87
2023-04-30T12:15:41.794Z,261.37
2023-04-30T12:20:44.575Z,258.80
2023-04-30T12:25:47.822Z,257.77
2023-04-30T12:30:50.025Z,289.13
2023-04-30T12:35:54.137Z,301.73
2023-04-30T12:40:57.248Z,305.20
2023-04-30T12:45:59.816Z,315.40
2023-04-30T12:51:03.066Z,314.73
2023-04-30T12:56:18.169Z,290.67
2023-04-30T13:01:23.241Z,291.60
2023-04-30T13:06:25.735Z,306.23
2023-04-30T13:11:28.418Z,320.37
2023-04-30T13:16:31.980Z,358.90
2023-04-30T13:21:34.218Z,379.53
2023-04-30T13:26:37.139Z,339.23
2023-04-30T13:31:39.240Z,283.83
2023-04-30T13:36:41.425Z,270.03
2023-04-30T13:41:43.547Z,261.97
2023-04-30T13:46:45.865Z,253.23
2023-04-30T13:51:48.128Z,126.27
2023-04-30T13:56:50.584Z,200.10
2023-04-30T14:01:52.837Z,236.70
2023-04-30T14:06:56.881Z,335.80
2023-04-30T14:11:59.272Z,337.17
2023-04-30T14:17:02.165Z,300.27
2023-04-30T14:22:04.441Z,375.77
2023-04-30T14:27:07.105Z,330.17
2023-04-30T14:32:09.329Z,235.03
2023-04-30T14:37:11.858Z,251.87
2023-04-30T14:42:14.330Z,222.27
2023-04-30T14:47:16.743Z,247.53
2023-04-30T14:52:19.998Z,331.37
2023-04-30T14:57:23.618Z,256.97
2023-04-30T15:02:25.884Z,374.03
2023-04-30T15:07:28.316Z,353.77
2023-04-30T15:12:30.492Z,374.97
2023-04-30T15:17:37.267Z,393.03
2023-04-30T15:22:40.620Z,330.13
2023-04-30T15:27:43.002Z,328.73
2023-04-30T15:32:47.655Z,326.77
2023-04-30T15:37:51.751Z,385.23
2023-04-30T15:42:53.857Z,393.17
2023-04-30T15:47:56.129Z,394.30
2023-04-30T15:52:58.632Z,361.33
2023-04-30T15:58:01.057Z,393.30
2023-04-30T16:03:03.541Z,392.40
2023-04-30T16:08:09.585Z,362.23
2023-04-30T16:13:11.841Z,327.17
2023-04-30T16:18:14.027Z,324.93
2023-04-30T16:23:16.855Z,319.27
2023-04-30T16:28:21.528Z,344.00
2023-04-30T16:33:25.411Z,382.80
2023-04-30T16:38:27.726Z,381.83
2023-04-30T16:43:29.848Z,381.53
2023-04-30T16:48:32.012Z,378.07
2023-04-30T16:53:36.298Z,369.93
2023-04-30T16:58:41.398Z,296.73
2023-04-30T17:03:43.753Z,298.03
2023-04-30T17:08:46.137Z,292.47
2023-04-30T17:13:48.544Z,300.40
2023-04-30T17:18:50.656Z,329.00
2023-04-30T17:23:52.942Z,335.27
2023-04-30T17:28:55.065Z,335.07
2023-04-30T17:33:57.337Z,336.03
2023-04-30T17:39:02.791Z,344.97
2023-04-30T17:44:05.110Z,342.87
2023-04-30T17:49:07.946Z,293.47
2023-04-30T17:54:10.233Z,272.70
2023-04-30T17:59:12.738Z,267.53
2023-04-30T18:04:20.817Z,264.53
2023-04-30T18:09:24.084Z,314.40
2023-04-30T18:14:26.168Z,311.30
2023-04-30T18:19:28.478Z,314.13
2023-04-30T18:24:30.890Z,317.47
2023-04-30T18:29:33.149Z,311.30
2023-04-30T18:34:35.354Z,308.93
2023-04-30T18:39:37.577Z,268.73
2023-04-30T18:44:39.828Z,254.10
2023-04-30T18:49:43.319Z,258.37
2023-04-30T18:54:45.535Z,258.23
2023-04-30T18:59:48.304Z,257.47
2023-04-30T19:04:52.355Z,290.43
2023-04-30T19:09:55.856Z,303.90
2023-04-30T19:14:58.987Z,304.30
2023-04-30T19:20:01.281Z,295.37
2023-04-30T19:25:04.258Z,305.93
2023-04-30T19:30:07.457Z,278.93
2023-04-30T19:35:09.983Z,248.23
2023-04-30T19:40:12.991Z,245.30
2023-04-30T19:45:15.195Z,252.10
2023-04-30T19:50:17.654Z,247.87
2023-04-30T19:55:19.973Z,261.13
2023-04-30T20:00:23.484Z,285.03
2023-04-30T20:05:25.875Z,288.73
2023-04-30T20:10:28.195Z,289.93
2023-04-30T20:15:30.882Z,291.60
2023-04-30T20:20:33.245Z,289.43
2023-04-30T20:25:35.828Z,282.63
2023-04-30T20:30:38.141Z,254.77
2023-04-30T20:35:47.654Z,252.10
2023-04-30T20:40:50.583Z,299.93
2023-04-30T20:45:59.025Z,344.17
2023-04-30T20:51:01.393Z,368.33
2023-04-30T20:56:04.590Z,325.33
2023-04-30T21:01:07.474Z,296.73
2023-04-30T21:06:10.310Z,268.50
2023-04-30T21:11:14.300Z,212.03
2023-04-30T21:16:16.562Z,230.23
2023-04-30T21:21:18.880Z,219.73
2023-04-30T21:26:21.907Z,265.17
2023-04-30T21:31:24.880Z,316.03
2023-04-30T21:36:29.240Z,329.53
2023-04-30T21:41:32.332Z,326.70
2023-04-30T21:46:34.484Z,321.27
2023-04-30T21:56:41.367Z,299.80
2023-04-30T22:01:43.578Z,287.77
2023-04-30T22:06:46.378Z,276.13
2023-04-30T22:11:49.710Z,282.10
2023-04-30T22:16:51.992Z,303.57
2023-04-30T22:21:54.157Z,311.00
2023-04-30T22:26:56.543Z,316.40
2023-04-30T22:31:58.740Z,310.40
2023-04-30T22:37:01.005Z,312.53
2023-04-30T22:42:05.050Z,302.30
2023-04-30T22:47:07.376Z,290.83
2023-04-30T22:52:09.806Z,257.27
2023-04-30T22:57:12.239Z,247.17
2023-04-30T23:02:15.149Z,240.70
2023-04-30T23:07:17.481Z,244.30
2023-04-30T23:12:19.618Z,246.63
2023-04-30T23:17:23.452Z,267.63
2023-04-30T23:22:25.773Z,289.03
2023-04-30T23:27:28.900Z,288.80
2023-04-30T23:32:31.696Z,289.53
2023-04-30T23:37:35.303Z,289.57
2023-04-30T23:42:37.404Z,268.83
2023-04-30T23:47:39.837Z,270.10
2023-04-30T23:52:41.982Z,251.13
2023-04-30T23:57:44.200Z,254.17
